Hamletsburg, Illinois
Current Conditions -  °F | °C
As of 1:15 AM on Saturday 20 Dec 2014 (Local Time) from KM30 Reporting Station
Overcast Overcast  
Wind Chill: 35°   Ceiling: 6000
Heat Index: 35°   Visibility: 10mi
Dew Point: 30°   Wind: 3mph
Humidity: 82%   Direction: 20°NNE
Pressure: 30.26"   Gusts: NA
Location:  37.14°N, 88.45°W
Report Text: KM30 200715Z AUTO 02003KT 10SM OVC060 02/M01 A3026 RMK AO2 T00151013
Loading
Personal Weather Stations






























Interactive Weather Map New forecast layout! Learn more

10-Day Weather Forecast

Advertisements
Track Severe Weather on mobile